<?xml version="1.0" encoding="utf-8"?>
<gpx xmlns:xsi="http://www.w3.org/2001/XMLSchema-instance" xmlns:xsd="http://www.w3.org/2001/XMLSchema" version="1.1" creator="Shapelink.com" xmlns="http://www.topografix.com/GPX/1/1" xmlns:gpxtpx="http://www.garmin.com/xmlschemas/TrackPointExtension/v1">
  <metadata>
    <name>Övrigt 2.09 km, 2020-07-08</name>
    <desc></desc>
    <author><name>Marian Moron</name></author> 
    <time>2020-07-08T20:47:30Z</time>
  </metadata>
  <trk>
    <name>Övrigt 2.09 km, 2020-07-08</name>
    <trkseg>
      <trkpt lat="51.229855628904" lon="4.45824711462">
        <ele>0</ele>
        <time>2020-07-08T20:47:30Z</time>
      </trkpt>
      <trkpt lat="51.229839368018" lon="4.458334202561">
        <ele>3.2</ele>
        <time>2020-07-08T20:47:41Z</time>
      </trkpt>
      <trkpt lat="51.229854623076" lon="4.45849940981">
        <ele>5.2</ele>
        <time>2020-07-08T20:47:55Z</time>
      </trkpt>
      <trkpt lat="51.22985177323" lon="4.458668221276">
        <ele>8.4</ele>
        <time>2020-07-08T20:48:12Z</time>
      </trkpt>
      <trkpt lat="51.229888988866" lon="4.459132327079">
        <ele>4.2</ele>
        <time>2020-07-08T20:48:55Z</time>
      </trkpt>
      <trkpt lat="51.229497973231" lon="4.459316142146">
        <ele>7.8</ele>
        <time>2020-07-08T20:49:46Z</time>
      </trkpt>
      <trkpt lat="51.229070663969" lon="4.459365595356">
        <ele>8.6</ele>
        <time>2020-07-08T20:51:19Z</time>
      </trkpt>
      <trkpt lat="51.228821386263" lon="4.459351429945">
        <ele>9.4</ele>
        <time>2020-07-08T20:51:52Z</time>
      </trkpt>
      <trkpt lat="51.228426095859" lon="4.45965443563">
        <ele>8.8</ele>
        <time>2020-07-08T20:52:27Z</time>
      </trkpt>
      <trkpt lat="51.228388880223" lon="4.45990673082">
        <ele>8.6</ele>
        <time>2020-07-08T20:52:54Z</time>
      </trkpt>
      <trkpt lat="51.228311431467" lon="4.460265727597">
        <ele>4.8</ele>
        <time>2020-07-08T20:53:16Z</time>
      </trkpt>
      <trkpt lat="51.228282849188" lon="4.460385588767">
        <ele>5.4</ele>
        <time>2020-07-08T20:53:25Z</time>
      </trkpt>
      <trkpt lat="51.228253428719" lon="4.460583736883">
        <ele>4</ele>
        <time>2020-07-08T20:53:57Z</time>
      </trkpt>
      <trkpt lat="51.228533048903" lon="4.461036275664">
        <ele>1.8</ele>
        <time>2020-07-08T20:54:38Z</time>
      </trkpt>
      <trkpt lat="51.228764221705" lon="4.461217324704">
        <ele>16.6</ele>
        <time>2020-07-08T20:55:16Z</time>
      </trkpt>
      <trkpt lat="51.229218520685" lon="4.461291001605">
        <ele>35.2</ele>
        <time>2020-07-08T20:55:45Z</time>
      </trkpt>
      <trkpt lat="51.229663599575" lon="4.461122525415">
        <ele>11.6</ele>
        <time>2020-07-08T20:56:20Z</time>
      </trkpt>
      <trkpt lat="51.229845402986" lon="4.461530221031">
        <ele>0.8</ele>
        <time>2020-07-08T20:57:12Z</time>
      </trkpt>
      <trkpt lat="51.230037432315" lon="4.462186104706">
        <ele>0</ele>
        <time>2020-07-08T20:57:56Z</time>
      </trkpt>
      <trkpt lat="51.230084119498" lon="4.462406548676">
        <ele>0</ele>
        <time>2020-07-08T20:58:20Z</time>
      </trkpt>
      <trkpt lat="51.230245051978" lon="4.46307844178">
        <ele>0</ele>
        <time>2020-07-08T20:59:30Z</time>
      </trkpt>
      <trkpt lat="51.230253014783" lon="4.463096379046">
        <ele>0</ele>
        <time>2020-07-08T20:59:31Z</time>
      </trkpt>
      <trkpt lat="51.230335325041" lon="4.463326043106">
        <ele>0</ele>
        <time>2020-07-08T20:59:51Z</time>
      </trkpt>
      <trkpt lat="51.23031445411" lon="4.463447496837">
        <ele>0</ele>
        <time>2020-07-08T21:00:05Z</time>
      </trkpt>
      <trkpt lat="51.230308335323" lon="4.463473816003">
        <ele>0</ele>
        <time>2020-07-08T21:00:07Z</time>
      </trkpt>
      <trkpt lat="51.230308502961" lon="4.463724853908">
        <ele>0</ele>
        <time>2020-07-08T21:00:44Z</time>
      </trkpt>
      <trkpt lat="51.230310849893" lon="4.463773720385">
        <ele>0</ele>
        <time>2020-07-08T21:00:47Z</time>
      </trkpt>
      <trkpt lat="51.230281261786" lon="4.463893833012">
        <ele>0</ele>
        <time>2020-07-08T21:00:56Z</time>
      </trkpt>
      <trkpt lat="51.230023685999" lon="4.464239167292">
        <ele>0</ele>
        <time>2020-07-08T21:01:53Z</time>
      </trkpt>
      <trkpt lat="51.22983417124" lon="4.464286105932">
        <ele>0</ele>
        <time>2020-07-08T21:02:18Z</time>
      </trkpt>
      <trkpt lat="51.229515575221" lon="4.464289961606">
        <ele>3.8</ele>
        <time>2020-07-08T21:03:07Z</time>
      </trkpt>
      <trkpt lat="51.229350284153" lon="4.464323070111">
        <ele>0</ele>
        <time>2020-07-08T21:03:29Z</time>
      </trkpt>
      <trkpt lat="51.229023725329" lon="4.464393897166">
        <ele>3.2</ele>
        <time>2020-07-08T21:04:06Z</time>
      </trkpt>
      <trkpt lat="51.228834545846" lon="4.464376546633">
        <ele>0.6</ele>
        <time>2020-07-08T21:04:27Z</time>
      </trkpt>
      <trkpt lat="51.228581580104" lon="4.464157611405">
        <ele>0</ele>
        <time>2020-07-08T21:05:20Z</time>
      </trkpt>
      <trkpt lat="51.228572611471" lon="4.463529052724">
        <ele>1.4</ele>
        <time>2020-07-08T21:06:05Z</time>
      </trkpt>
      <trkpt lat="51.228759946936" lon="4.463552186768">
        <ele>0</ele>
        <time>2020-07-08T21:06:22Z</time>
      </trkpt>
      <trkpt lat="51.22885767989" lon="4.463560149573">
        <ele>0</ele>
        <time>2020-07-08T21:06:43Z</time>
      </trkpt>
      <trkpt lat="51.228990616824" lon="4.463582445427">
        <ele>0</ele>
        <time>2020-07-08T21:06:53Z</time>
      </trkpt>
      <trkpt lat="51.229009140823" lon="4.46347658203">
        <ele>0</ele>
        <time>2020-07-08T21:07:10Z</time>
      </trkpt>
      <trkpt lat="51.229025066433" lon="4.463285977624">
        <ele>0</ele>
        <time>2020-07-08T21:07:29Z</time>
      </trkpt>
      <trkpt lat="51.229016265438" lon="4.462555495039">
        <ele>9.2</ele>
        <time>2020-07-08T21:08:11Z</time>
      </trkpt>
      <trkpt lat="51.228977205784" lon="4.461896174785">
        <ele>0</ele>
        <time>2020-07-08T21:08:51Z</time>
      </trkpt>
      <trkpt lat="51.22874368605" lon="4.461873878931">
        <ele>0</ele>
        <time>2020-07-08T21:09:28Z</time>
      </trkpt>
      <trkpt lat="51.228648551485" lon="4.461898689355">
        <ele>0</ele>
        <time>2020-07-08T21:09:39Z</time>
      </trkpt>
      <trkpt lat="51.228462221848" lon="4.46138026884">
        <ele>4</ele>
        <time>2020-07-08T21:10:20Z</time>
      </trkpt>
      <trkpt lat="51.228466831893" lon="4.461272812882">
        <ele>7.6</ele>
        <time>2020-07-08T21:10:24Z</time>
      </trkpt>
      <trkpt lat="51.228270863071" lon="4.46062757422">
        <ele>0</ele>
        <time>2020-07-08T21:11:23Z</time>
      </trkpt>
      <trkpt lat="51.228008844877" lon="4.460445770809">
        <ele>6.6</ele>
        <time>2020-07-08T21:12:58Z</time>
      </trkpt>
      <trkpt lat="51.228337247719" lon="4.460213843636">
        <ele>9.6</ele>
        <time>2020-07-08T21:13:42Z</time>
      </trkpt>
      <trkpt lat="51.228409583516" lon="4.460083756548">
        <ele>6</ele>
        <time>2020-07-08T21:13:52Z</time>
      </trkpt>
      <trkpt lat="51.228510501592" lon="4.459442792655">
        <ele>0</ele>
        <time>2020-07-08T21:14:37Z</time>
      </trkpt>
      <trkpt lat="51.228599433551" lon="4.459064517508">
        <ele>0</ele>
        <time>2020-07-08T21:15:05Z</time>
      </trkpt>
      <trkpt lat="51.228649976408" lon="4.458975585549">
        <ele>4.8</ele>
        <time>2020-07-08T21:15:24Z</time>
      </trkpt>
      <trkpt lat="51.228612593134" lon="4.458546851364">
        <ele>0</ele>
        <time>2020-07-08T21:15:58Z</time>
      </trkpt>
      <trkpt lat="51.228527097754" lon="4.458317187304">
        <ele>0</ele>
        <time>2020-07-08T21:16:34Z</time>
      </trkpt>
      <trkpt lat="51.228485942625" lon="4.458188525139">
        <ele>0</ele>
        <time>2020-07-08T21:16:43Z</time>
      </trkpt>
      <trkpt lat="51.228516620379" lon="4.457729448476">
        <ele>6</ele>
        <time>2020-07-08T21:17:15Z</time>
      </trkpt>
      <trkpt lat="51.228499688941" lon="4.457660884534">
        <ele>7.8</ele>
        <time>2020-07-08T21:17:21Z</time>
      </trkpt>
      <trkpt lat="51.22859113547" lon="4.457182780958">
        <ele>1</ele>
        <time>2020-07-08T21:18:04Z</time>
      </trkpt>
      <trkpt lat="51.22861544298" lon="4.457167861176">
        <ele>0.2</ele>
        <time>2020-07-08T21:18:07Z</time>
      </trkpt>
      <trkpt lat="51.228899924666" lon="4.456890252648">
        <ele>17.4</ele>
        <time>2020-07-08T21:19:21Z</time>
      </trkpt>
      <trkpt lat="51.228952730636" lon="4.456895365607">
        <ele>18.6</ele>
        <time>2020-07-08T21:19:26Z</time>
      </trkpt>
      <trkpt lat="51.229175940633" lon="4.456882708938">
        <ele>26.8</ele>
        <time>2020-07-08T21:19:50Z</time>
      </trkpt>
      <trkpt lat="51.229620600428" lon="4.456773911876">
        <ele>32.6</ele>
        <time>2020-07-08T21:20:38Z</time>
      </trkpt>
      <trkpt lat="51.229676423882" lon="4.456744575226">
        <ele>29.4</ele>
        <time>2020-07-08T21:20:43Z</time>
      </trkpt>
      <trkpt lat="51.23007976091" lon="4.456587582239">
        <ele>21.4</ele>
        <time>2020-07-08T21:21:21Z</time>
      </trkpt>
      <trkpt lat="51.230403972802" lon="4.456601915288">
        <ele>3.6</ele>
        <time>2020-07-08T21:22:51Z</time>
      </trkpt>
      <trkpt lat="51.230391483771" lon="4.456624462599">
        <ele>3.6</ele>
        <time>2020-07-08T21:22:53Z</time>
      </trkpt>
      <trkpt lat="51.230291655342" lon="4.456643489512">
        <ele>3.2</ele>
        <time>2020-07-08T21:23:17Z</time>
      </trkpt>
      <trkpt lat="51.230227952902" lon="4.456626977169">
        <ele>4.2</ele>
        <time>2020-07-08T21:23:23Z</time>
      </trkpt>
      <trkpt lat="51.229752112439" lon="4.45660174765">
        <ele>5.6</ele>
        <time>2020-07-08T21:23:56Z</time>
      </trkpt>
      <trkpt lat="51.229732498793" lon="4.45685571922">
        <ele>2</ele>
        <time>2020-07-08T21:24:26Z</time>
      </trkpt>
      <trkpt lat="51.229806343332" lon="4.457288057622">
        <ele>3.6</ele>
        <time>2020-07-08T21:24:48Z</time>
      </trkpt>
      <trkpt lat="51.229831069937" lon="4.457606318365">
        <ele>1</ele>
        <time>2020-07-08T21:25:30Z</time>
      </trkpt>
      <trkpt lat="51.229880355509" lon="4.457836485339">
        <ele>1.8</ele>
        <time>2020-07-08T21:25:47Z</time>
      </trkpt>
      <trkpt lat="51.229862921157" lon="4.457894488087">
        <ele>2.4</ele>
        <time>2020-07-08T21:25:50Z</time>
      </trkpt>
      <trkpt lat="51.229815144327" lon="4.457898846675">
        <ele>2.4</ele>
        <time>2020-07-08T21:25:54Z</time>
      </trkpt>
    </trkseg>
  </trk>
</gpx>